sensor_id;sensor_type;location;lat;lon;timestamp;P1;durP1;ratioP1;P2;durP2;ratioP2
24467;SDS011;12634;50.852;5.676;2023-03-14T00:00:16;3.60;;;0.70;;
24467;SDS011;12634;50.852;5.676;2023-03-14T00:02:44;4.38;;;1.00;;
24467;SDS011;12634;50.852;5.676;2023-03-14T00:05:11;4.30;;;0.85;;
24467;SDS011;12634;50.852;5.676;2023-03-14T00:07:38;4.40;;;0.95;;
24467;SDS011;12634;50.852;5.676;2023-03-14T00:10:07;2.55;;;0.80;;
24467;SDS011;12634;50.852;5.676;2023-03-14T00:12:36;2.25;;;0.77;;
24467;SDS011;12634;50.852;5.676;2023-03-14T00:15:04;4.43;;;1.02;;
24467;SDS011;12634;50.852;5.676;2023-03-14T00:17:33;4.60;;;0.95;;
24467;SDS011;12634;50.852;5.676;2023-03-14T00:20:01;4.55;;;1.40;;
24467;SDS011;12634;50.852;5.676;2023-03-14T00:22:33;4.45;;;1.00;;
24467;SDS011;12634;50.852;5.676;2023-03-14T00:25:01;8.15;;;1.73;;
24467;SDS011;12634;50.852;5.676;2023-03-14T00:27:28;7.18;;;1.27;;
24467;SDS011;12634;50.852;5.676;2023-03-14T00:29:55;6.63;;;1.13;;
24467;SDS011;12634;50.852;5.676;2023-03-14T00:32:22;9.27;;;1.55;;
24467;SDS011;12634;50.852;5.676;2023-03-14T00:34:51;7.80;;;1.42;;
24467;SDS011;12634;50.852;5.676;2023-03-14T00:37:18;6.88;;;1.75;;
24467;SDS011;12634;50.852;5.676;2023-03-14T00:39:45;7.45;;;1.15;;
24467;SDS011;12634;50.852;5.676;2023-03-14T00:42:13;4.97;;;1.23;;
24467;SDS011;12634;50.852;5.676;2023-03-14T00:44:40;5.78;;;1.02;;
24467;SDS011;12634;50.852;5.676;2023-03-14T00:47:07;5.47;;;1.10;;
24467;SDS011;12634;50.852;5.676;2023-03-14T00:49:34;3.08;;;1.00;;
24467;SDS011;12634;50.852;5.676;2023-03-14T00:52:03;7.00;;;1.40;;
24467;SDS011;12634;50.852;5.676;2023-03-14T00:54:30;9.05;;;1.30;;
24467;SDS011;12634;50.852;5.676;2023-03-14T00:56:57;5.10;;;1.17;;
24467;SDS011;12634;50.852;5.676;2023-03-14T00:59:24;7.40;;;1.27;;
24467;SDS011;12634;50.852;5.676;2023-03-14T01:01:51;6.20;;;1.35;;
24467;SDS011;12634;50.852;5.676;2023-03-14T01:04:19;4.47;;;0.88;;
24467;SDS011;12634;50.852;5.676;2023-03-14T01:06:46;8.93;;;1.58;;
24467;SDS011;12634;50.852;5.676;2023-03-14T01:09:14;6.65;;;1.08;;
24467;SDS011;12634;50.852;5.676;2023-03-14T01:11:44;4.18;;;0.85;;
24467;SDS011;12634;50.852;5.676;2023-03-14T01:14:11;5.97;;;0.90;;
24467;SDS011;12634;50.852;5.676;2023-03-14T01:16:39;4.82;;;1.10;;
24467;SDS011;12634;50.852;5.676;2023-03-14T01:19:06;4.65;;;1.08;;
24467;SDS011;12634;50.852;5.676;2023-03-14T01:21:34;6.05;;;1.05;;
24467;SDS011;12634;50.852;5.676;2023-03-14T01:24:02;4.72;;;1.08;;
24467;SDS011;12634;50.852;5.676;2023-03-14T01:26:33;6.28;;;1.05;;
24467;SDS011;12634;50.852;5.676;2023-03-14T01:29:01;3.50;;;0.90;;
24467;SDS011;12634;50.852;5.676;2023-03-14T01:31:29;4.45;;;0.80;;
24467;SDS011;12634;50.852;5.676;2023-03-14T01:33:56;5.00;;;0.90;;
24467;SDS011;12634;50.852;5.676;2023-03-14T01:36:23;7.72;;;1.13;;
24467;SDS011;12634;50.852;5.676;2023-03-14T01:38:50;6.95;;;1.38;;
24467;SDS011;12634;50.852;5.676;2023-03-14T01:41:18;3.63;;;1.08;;
24467;SDS011;12634;50.852;5.676;2023-03-14T01:43:48;4.35;;;0.90;;
24467;SDS011;12634;50.852;5.676;2023-03-14T01:46:20;6.82;;;1.63;;
24467;SDS011;12634;50.852;5.676;2023-03-14T01:48:54;5.90;;;1.40;;
24467;SDS011;12634;50.852;5.676;2023-03-14T01:51:27;6.45;;;1.55;;
24467;SDS011;12634;50.852;5.676;2023-03-14T01:53:59;5.72;;;1.10;;
24467;SDS011;12634;50.852;5.676;2023-03-14T01:56:33;6.22;;;1.52;;
24467;SDS011;12634;50.852;5.676;2023-03-14T01:59:04;8.52;;;1.55;;
24467;SDS011;12634;50.852;5.676;2023-03-14T02:01:34;5.20;;;1.35;;
24467;SDS011;12634;50.852;5.676;2023-03-14T02:04:02;5.97;;;1.58;;
24467;SDS011;12634;50.852;5.676;2023-03-14T02:06:35;6.28;;;1.17;;
24467;SDS011;12634;50.852;5.676;2023-03-14T02:09:10;6.50;;;1.50;;
24467;SDS011;12634;50.852;5.676;2023-03-14T02:11:37;7.47;;;1.33;;
24467;SDS011;12634;50.852;5.676;2023-03-14T02:14:07;7.25;;;1.75;;
24467;SDS011;12634;50.852;5.676;2023-03-14T02:16:36;9.40;;;1.65;;
24467;SDS011;12634;50.852;5.676;2023-03-14T02:19:03;12.05;;;2.17;;
24467;SDS011;12634;50.852;5.676;2023-03-14T02:21:37;9.15;;;1.90;;
24467;SDS011;12634;50.852;5.676;2023-03-14T02:24:13;11.48;;;2.10;;
24467;SDS011;12634;50.852;5.676;2023-03-14T02:27:02;6.07;;;1.30;;
24467;SDS011;12634;50.852;5.676;2023-03-14T02:29:31;10.18;;;1.67;;
24467;SDS011;12634;50.852;5.676;2023-03-14T02:32:01;7.28;;;1.52;;
24467;SDS011;12634;50.852;5.676;2023-03-14T02:34:28;8.85;;;1.83;;
24467;SDS011;12634;50.852;5.676;2023-03-14T02:36:56;10.10;;;1.75;;
24467;SDS011;12634;50.852;5.676;2023-03-14T02:39:27;6.60;;;1.70;;
24467;SDS011;12634;50.852;5.676;2023-03-14T02:41:59;7.85;;;1.80;;
24467;SDS011;12634;50.852;5.676;2023-03-14T02:44:28;8.85;;;1.40;;
24467;SDS011;12634;50.852;5.676;2023-03-14T02:46:55;11.05;;;1.70;;
24467;SDS011;12634;50.852;5.676;2023-03-14T02:49:23;8.20;;;1.63;;
24467;SDS011;12634;50.852;5.676;2023-03-14T02:51:52;10.70;;;1.90;;
24467;SDS011;12634;50.852;5.676;2023-03-14T02:54:19;6.80;;;1.40;;
24467;SDS011;12634;50.852;5.676;2023-03-14T02:56:47;9.82;;;1.95;;
24467;SDS011;12634;50.852;5.676;2023-03-14T02:59:15;9.38;;;2.70;;
24467;SDS011;12634;50.852;5.676;2023-03-14T03:01:44;5.95;;;1.40;;
24467;SDS011;12634;50.852;5.676;2023-03-14T03:04:11;8.98;;;1.95;;
24467;SDS011;12634;50.852;5.676;2023-03-14T03:06:38;6.93;;;1.63;;
24467;SDS011;12634;50.852;5.676;2023-03-14T03:09:05;10.80;;;1.95;;
24467;SDS011;12634;50.852;5.676;2023-03-14T03:11:32;7.85;;;1.95;;
24467;SDS011;12634;50.852;5.676;2023-03-14T03:14:00;8.27;;;1.38;;
24467;SDS011;12634;50.852;5.676;2023-03-14T03:16:27;7.43;;;2.10;;
24467;SDS011;12634;50.852;5.676;2023-03-14T03:18:56;7.45;;;1.75;;
24467;SDS011;12634;50.852;5.676;2023-03-14T03:21:23;7.15;;;1.88;;
24467;SDS011;12634;50.852;5.676;2023-03-14T03:23:50;7.22;;;1.63;;
24467;SDS011;12634;50.852;5.676;2023-03-14T03:26:17;8.55;;;1.92;;
24467;SDS011;12634;50.852;5.676;2023-03-14T03:28:44;7.10;;;1.70;;
24467;SDS011;12634;50.852;5.676;2023-03-14T03:31:11;9.48;;;1.58;;
24467;SDS011;12634;50.852;5.676;2023-03-14T03:33:39;6.57;;;1.55;;
24467;SDS011;12634;50.852;5.676;2023-03-14T03:36:08;7.93;;;1.85;;
24467;SDS011;12634;50.852;5.676;2023-03-14T03:38:36;9.50;;;1.75;;
24467;SDS011;12634;50.852;5.676;2023-03-14T03:41:04;7.25;;;1.63;;
24467;SDS011;12634;50.852;5.676;2023-03-14T03:43:32;9.65;;;1.90;;
24467;SDS011;12634;50.852;5.676;2023-03-14T03:46:02;5.70;;;1.50;;
24467;SDS011;12634;50.852;5.676;2023-03-14T03:48:30;9.02;;;1.40;;
24467;SDS011;12634;50.852;5.676;2023-03-14T03:50:57;5.32;;;1.35;;
24467;SDS011;12634;50.852;5.676;2023-03-14T03:53:26;5.28;;;1.23;;
24467;SDS011;12634;50.852;5.676;2023-03-14T03:55:53;2.90;;;0.98;;
24467;SDS011;12634;50.852;5.676;2023-03-14T03:58:20;1.63;;;0.60;;
24467;SDS011;12634;50.852;5.676;2023-03-14T04:00:47;2.10;;;0.70;;
24467;SDS011;12634;50.852;5.676;2023-03-14T04:03:14;6.30;;;1.10;;
24467;SDS011;12634;50.852;5.676;2023-03-14T04:05:41;3.17;;;0.85;;
24467;SDS011;12634;50.852;5.676;2023-03-14T04:08:09;1.92;;;0.60;;
24467;SDS011;12634;50.852;5.676;2023-03-14T04:10:37;2.97;;;0.85;;
24467;SDS011;12634;50.852;5.676;2023-03-14T04:13:04;3.28;;;0.57;;
24467;SDS011;12634;50.852;5.676;2023-03-14T04:15:31;5.32;;;0.70;;
24467;SDS011;12634;50.852;5.676;2023-03-14T04:17:58;1.08;;;0.40;;
24467;SDS011;12634;50.852;5.676;2023-03-14T04:20:26;3.40;;;0.60;;
24467;SDS011;12634;50.852;5.676;2023-03-14T04:22:53;3.15;;;0.70;;
24467;SDS011;12634;50.852;5.676;2023-03-14T04:25:20;1.85;;;0.40;;
24467;SDS011;12634;50.852;5.676;2023-03-14T04:27:48;0.80;;;0.70;;
24467;SDS011;12634;50.852;5.676;2023-03-14T04:30:15;1.73;;;0.50;;
24467;SDS011;12634;50.852;5.676;2023-03-14T04:32:42;3.85;;;0.50;;
24467;SDS011;12634;50.852;5.676;2023-03-14T04:35:09;2.30;;;0.55;;
24467;SDS011;12634;50.852;5.676;2023-03-14T04:37:37;2.95;;;0.40;;
24467;SDS011;12634;50.852;5.676;2023-03-14T04:40:04;2.13;;;0.47;;
24467;SDS011;12634;50.852;5.676;2023-03-14T04:42:32;0.63;;;0.45;;
24467;SDS011;12634;50.852;5.676;2023-03-14T04:45:01;2.40;;;0.30;;
24467;SDS011;12634;50.852;5.676;2023-03-14T04:47:28;1.77;;;0.43;;
24467;SDS011;12634;50.852;5.676;2023-03-14T04:49:55;1.40;;;0.40;;
24467;SDS011;12634;50.852;5.676;2023-03-14T04:52:22;1.45;;;0.50;;
24467;SDS011;12634;50.852;5.676;2023-03-14T04:54:49;0.75;;;0.30;;
24467;SDS011;12634;50.852;5.676;2023-03-14T04:57:16;1.00;;;0.40;;
24467;SDS011;12634;50.852;5.676;2023-03-14T04:59:43;0.68;;;0.35;;
24467;SDS011;12634;50.852;5.676;2023-03-14T05:02:12;0.52;;;0.30;;
24467;SDS011;12634;50.852;5.676;2023-03-14T05:04:39;1.42;;;0.20;;
24467;SDS011;12634;50.852;5.676;2023-03-14T05:07:06;2.22;;;0.45;;
24467;SDS011;12634;50.852;5.676;2023-03-14T05:09:33;0.52;;;0.20;;
24467;SDS011;12634;50.852;5.676;2023-03-14T05:12:00;0.57;;;0.22;;
24467;SDS011;12634;50.852;5.676;2023-03-14T05:14:28;2.30;;;0.40;;
24467;SDS011;12634;50.852;5.676;2023-03-14T05:16:55;1.17;;;0.22;;
24467;SDS011;12634;50.852;5.676;2023-03-14T05:19:23;0.25;;;0.22;;
24467;SDS011;12634;50.852;5.676;2023-03-14T05:21:50;3.10;;;0.30;;
24467;SDS011;12634;50.852;5.676;2023-03-14T05:24:17;1.27;;;0.30;;
24467;SDS011;12634;50.852;5.676;2023-03-14T05:26:45;2.38;;;0.40;;
24467;SDS011;12634;50.852;5.676;2023-03-14T05:29:12;1.45;;;0.22;;
24467;SDS011;12634;50.852;5.676;2023-03-14T05:31:39;0.60;;;0.30;;
24467;SDS011;12634;50.852;5.676;2023-03-14T05:34:06;0.45;;;0.25;;
24467;SDS011;12634;50.852;5.676;2023-03-14T05:36:34;0.50;;;0.20;;
24467;SDS011;12634;50.852;5.676;2023-03-14T05:39:02;0.82;;;0.30;;
24467;SDS011;12634;50.852;5.676;2023-03-14T05:41:29;2.28;;;0.30;;
24467;SDS011;12634;50.852;5.676;2023-03-14T05:43:56;0.45;;;0.20;;
24467;SDS011;12634;50.852;5.676;2023-03-14T05:46:23;0.25;;;0.20;;
24467;SDS011;12634;50.852;5.676;2023-03-14T05:48:50;0.30;;;0.30;;
24467;SDS011;12634;50.852;5.676;2023-03-14T05:51:17;0.38;;;0.30;;
24467;SDS011;12634;50.852;5.676;2023-03-14T05:53:46;0.20;;;0.20;;
24467;SDS011;12634;50.852;5.676;2023-03-14T05:56:13;1.25;;;0.40;;
24467;SDS011;12634;50.852;5.676;2023-03-14T05:58:40;0.50;;;0.30;;
24467;SDS011;12634;50.852;5.676;2023-03-14T06:01:07;0.98;;;0.47;;
24467;SDS011;12634;50.852;5.676;2023-03-14T06:03:35;0.40;;;0.40;;
24467;SDS011;12634;50.852;5.676;2023-03-14T06:06:02;0.45;;;0.40;;
24467;SDS011;12634;50.852;5.676;2023-03-14T06:08:29;0.30;;;0.30;;
24467;SDS011;12634;50.852;5.676;2023-03-14T06:10:58;1.58;;;0.50;;
24467;SDS011;12634;50.852;5.676;2023-03-14T06:13:25;0.50;;;0.30;;
24467;SDS011;12634;50.852;5.676;2023-03-14T06:15:52;0.80;;;0.65;;
24467;SDS011;12634;50.852;5.676;2023-03-14T06:18:19;0.57;;;0.43;;
24467;SDS011;12634;50.852;5.676;2023-03-14T06:20:46;0.90;;;0.50;;
24467;SDS011;12634;50.852;5.676;2023-03-14T06:23:13;1.55;;;0.50;;
24467;SDS011;12634;50.852;5.676;2023-03-14T06:25:41;1.27;;;0.40;;
24467;SDS011;12634;50.852;5.676;2023-03-14T06:28:09;0.63;;;0.40;;
24467;SDS011;12634;50.852;5.676;2023-03-14T06:30:36;0.57;;;0.40;;
24467;SDS011;12634;50.852;5.676;2023-03-14T06:33:03;0.95;;;0.35;;
24467;SDS011;12634;50.852;5.676;2023-03-14T06:35:30;1.83;;;0.50;;
24467;SDS011;12634;50.852;5.676;2023-03-14T06:37:58;1.00;;;0.40;;
24467;SDS011;12634;50.852;5.676;2023-03-14T06:40:25;0.50;;;0.40;;
24467;SDS011;12634;50.852;5.676;2023-03-14T06:42:52;0.40;;;0.25;;
24467;SDS011;12634;50.852;5.676;2023-03-14T06:45:21;0.52;;;0.40;;
24467;SDS011;12634;50.852;5.676;2023-03-14T06:47:48;1.60;;;0.52;;
24467;SDS011;12634;50.852;5.676;2023-03-14T06:50:15;0.82;;;0.50;;
24467;SDS011;12634;50.852;5.676;2023-03-14T06:52:42;0.30;;;0.30;;
24467;SDS011;12634;50.852;5.676;2023-03-14T06:55:13;0.98;;;0.40;;
24467;SDS011;12634;50.852;5.676;2023-03-14T06:57:40;0.60;;;0.38;;
24467;SDS011;12634;50.852;5.676;2023-03-14T07:00:10;1.50;;;0.50;;
24467;SDS011;12634;50.852;5.676;2023-03-14T07:02:39;2.55;;;0.50;;
24467;SDS011;12634;50.852;5.676;2023-03-14T07:05:07;0.50;;;0.32;;
24467;SDS011;12634;50.852;5.676;2023-03-14T07:07:35;0.77;;;0.52;;
24467;SDS011;12634;50.852;5.676;2023-03-14T07:10:03;2.03;;;0.50;;
24467;SDS011;12634;50.852;5.676;2023-03-14T07:12:30;1.80;;;0.50;;
24467;SDS011;12634;50.852;5.676;2023-03-14T07:14:57;1.00;;;0.52;;
24467;SDS011;12634;50.852;5.676;2023-03-14T07:17:24;2.33;;;0.68;;
24467;SDS011;12634;50.852;5.676;2023-03-14T07:19:53;4.15;;;0.60;;
24467;SDS011;12634;50.852;5.676;2023-03-14T07:22:20;1.38;;;0.73;;
24467;SDS011;12634;50.852;5.676;2023-03-14T07:24:47;1.58;;;0.60;;
24467;SDS011;12634;50.852;5.676;2023-03-14T07:27:14;2.75;;;0.80;;
24467;SDS011;12634;50.852;5.676;2023-03-14T07:29:42;1.48;;;0.50;;
24467;SDS011;12634;50.852;5.676;2023-03-14T07:32:09;0.75;;;0.50;;
24467;SDS011;12634;50.852;5.676;2023-03-14T07:34:39;1.85;;;0.50;;
24467;SDS011;12634;50.852;5.676;2023-03-14T07:37:08;0.80;;;0.50;;
24467;SDS011;12634;50.852;5.676;2023-03-14T07:39:35;0.52;;;0.43;;
24467;SDS011;12634;50.852;5.676;2023-03-14T07:42:03;1.17;;;0.70;;
24467;SDS011;12634;50.852;5.676;2023-03-14T07:44:30;1.85;;;0.70;;
24467;SDS011;12634;50.852;5.676;2023-03-14T07:46:57;2.17;;;0.70;;
24467;SDS011;12634;50.852;5.676;2023-03-14T07:49:24;0.75;;;0.40;;
24467;SDS011;12634;50.852;5.676;2023-03-14T07:51:52;1.27;;;0.60;;
24467;SDS011;12634;50.852;5.676;2023-03-14T07:54:21;1.35;;;0.65;;
24467;SDS011;12634;50.852;5.676;2023-03-14T07:56:48;2.10;;;0.70;;
24467;SDS011;12634;50.852;5.676;2023-03-14T07:59:16;1.35;;;0.57;;
24467;SDS011;12634;50.852;5.676;2023-03-14T08:01:43;2.00;;;0.68;;
24467;SDS011;12634;50.852;5.676;2023-03-14T08:04:10;0.80;;;0.60;;
24467;SDS011;12634;50.852;5.676;2023-03-14T08:06:37;1.48;;;0.75;;
24467;SDS011;12634;50.852;5.676;2023-03-14T08:09:04;0.85;;;0.50;;
24467;SDS011;12634;50.852;5.676;2023-03-14T08:11:33;0.90;;;0.50;;
24467;SDS011;12634;50.852;5.676;2023-03-14T08:14:00;1.92;;;0.80;;
24467;SDS011;12634;50.852;5.676;2023-03-14T08:16:27;0.45;;;0.40;;
24467;SDS011;12634;50.852;5.676;2023-03-14T08:18:54;2.55;;;1.52;;
24467;SDS011;12634;50.852;5.676;2023-03-14T08:21:22;1.15;;;0.85;;
24467;SDS011;12634;50.852;5.676;2023-03-14T08:23:49;0.45;;;0.40;;
24467;SDS011;12634;50.852;5.676;2023-03-14T08:26:17;1.00;;;0.40;;
24467;SDS011;12634;50.852;5.676;2023-03-14T08:28:45;0.30;;;0.30;;
24467;SDS011;12634;50.852;5.676;2023-03-14T08:31:12;1.30;;;0.43;;
24467;SDS011;12634;50.852;5.676;2023-03-14T08:33:39;1.10;;;0.65;;
24467;SDS011;12634;50.852;5.676;2023-03-14T08:36:07;0.40;;;0.40;;
24467;SDS011;12634;50.852;5.676;2023-03-14T08:38:34;1.38;;;0.60;;
24467;SDS011;12634;50.852;5.676;2023-03-14T08:41:02;1.38;;;0.85;;
24467;SDS011;12634;50.852;5.676;2023-03-14T08:43:30;1.05;;;0.50;;
24467;SDS011;12634;50.852;5.676;2023-03-14T08:45:59;0.85;;;0.50;;
24467;SDS011;12634;50.852;5.676;2023-03-14T08:48:27;0.52;;;0.52;;
24467;SDS011;12634;50.852;5.676;2023-03-14T08:50:55;0.57;;;0.50;;
24467;SDS011;12634;50.852;5.676;2023-03-14T08:53:22;0.82;;;0.60;;
24467;SDS011;12634;50.852;5.676;2023-03-14T08:55:52;1.67;;;0.68;;
24467;SDS011;12634;50.852;5.676;2023-03-14T08:58:20;0.75;;;0.60;;
24467;SDS011;12634;50.852;5.676;2023-03-14T09:00:48;1.35;;;1.00;;
24467;SDS011;12634;50.852;5.676;2023-03-14T09:03:17;1.67;;;0.80;;
24467;SDS011;12634;50.852;5.676;2023-03-14T09:05:44;2.25;;;1.05;;
24467;SDS011;12634;50.852;5.676;2023-03-14T09:08:11;3.30;;;0.85;;
24467;SDS011;12634;50.852;5.676;2023-03-14T09:10:39;1.63;;;1.17;;
24467;SDS011;12634;50.852;5.676;2023-03-14T09:13:06;2.65;;;1.00;;
24467;SDS011;12634;50.852;5.676;2023-03-14T09:15:33;1.13;;;0.90;;
24467;SDS011;12634;50.852;5.676;2023-03-14T09:18:00;3.53;;;1.08;;
24467;SDS011;12634;50.852;5.676;2023-03-14T09:20:29;3.30;;;1.20;;
24467;SDS011;12634;50.852;5.676;2023-03-14T09:22:57;2.92;;;1.00;;
24467;SDS011;12634;50.852;5.676;2023-03-14T09:25:24;2.17;;;1.25;;
24467;SDS011;12634;50.852;5.676;2023-03-14T09:27:51;2.17;;;1.00;;
24467;SDS011;12634;50.852;5.676;2023-03-14T09:30:18;2.88;;;1.10;;
24467;SDS011;12634;50.852;5.676;2023-03-14T09:32:45;2.42;;;1.27;;
24467;SDS011;12634;50.852;5.676;2023-03-14T09:35:13;1.52;;;0.80;;
24467;SDS011;12634;50.852;5.676;2023-03-14T09:37:41;1.40;;;0.80;;
24467;SDS011;12634;50.852;5.676;2023-03-14T09:40:11;1.38;;;1.08;;
24467;SDS011;12634;50.852;5.676;2023-03-14T09:42:39;1.80;;;1.00;;
24467;SDS011;12634;50.852;5.676;2023-03-14T09:45:10;2.42;;;1.30;;
24467;SDS011;12634;50.852;5.676;2023-03-14T09:47:42;3.92;;;1.15;;
24467;SDS011;12634;50.852;5.676;2023-03-14T09:50:11;3.38;;;1.00;;
24467;SDS011;12634;50.852;5.676;2023-03-14T09:52:43;6.60;;;1.30;;
24467;SDS011;12634;50.852;5.676;2023-03-14T09:55:13;1.92;;;1.00;;
24467;SDS011;12634;50.852;5.676;2023-03-14T09:57:42;1.35;;;1.00;;
24467;SDS011;12634;50.852;5.676;2023-03-14T10:00:15;1.80;;;1.10;;
24467;SDS011;12634;50.852;5.676;2023-03-14T10:02:46;2.17;;;1.00;;
24467;SDS011;12634;50.852;5.676;2023-03-14T10:05:18;5.55;;;1.25;;
24467;SDS011;12634;50.852;5.676;2023-03-14T10:07:47;2.28;;;1.20;;
24467;SDS011;12634;50.852;5.676;2023-03-14T10:10:16;3.40;;;1.00;;
24467;SDS011;12634;50.852;5.676;2023-03-14T10:12:45;2.05;;;1.15;;
24467;SDS011;12634;50.852;5.676;2023-03-14T10:15:15;4.93;;;1.30;;
24467;SDS011;12634;50.852;5.676;2023-03-14T10:17:51;1.75;;;1.38;;
24467;SDS011;12634;50.852;5.676;2023-03-14T10:20:28;3.15;;;1.70;;
24467;SDS011;12634;50.852;5.676;2023-03-14T10:23:05;2.65;;;1.60;;
24467;SDS011;12634;50.852;5.676;2023-03-14T10:25:45;2.42;;;1.25;;
24467;SDS011;12634;50.852;5.676;2023-03-14T10:28:26;2.33;;;1.20;;
24467;SDS011;12634;50.852;5.676;2023-03-14T10:30:54;3.58;;;1.15;;
24467;SDS011;12634;50.852;5.676;2023-03-14T10:33:23;3.60;;;1.25;;
24467;SDS011;12634;50.852;5.676;2023-03-14T10:35:52;1.80;;;0.75;;
24467;SDS011;12634;50.852;5.676;2023-03-14T10:38:24;0.80;;;0.77;;
24467;SDS011;12634;50.852;5.676;2023-03-14T10:40:53;1.23;;;0.73;;
24467;SDS011;12634;50.852;5.676;2023-03-14T10:43:23;1.25;;;0.60;;
24467;SDS011;12634;50.852;5.676;2023-03-14T10:45:53;0.85;;;0.50;;
24467;SDS011;12634;50.852;5.676;2023-03-14T10:48:24;2.75;;;0.80;;
24467;SDS011;12634;50.852;5.676;2023-03-14T10:51:03;3.20;;;0.80;;
24467;SDS011;12634;50.852;5.676;2023-03-14T10:53:34;3.92;;;0.82;;
24467;SDS011;12634;50.852;5.676;2023-03-14T10:56:10;2.03;;;0.77;;
24467;SDS011;12634;50.852;5.676;2023-03-14T10:58:40;3.65;;;0.80;;
24467;SDS011;12634;50.852;5.676;2023-03-14T11:01:12;2.65;;;0.80;;
24467;SDS011;12634;50.852;5.676;2023-03-14T11:03:51;1.65;;;0.38;;
24467;SDS011;12634;50.852;5.676;2023-03-14T11:06:23;2.22;;;0.73;;
24467;SDS011;12634;50.852;5.676;2023-03-14T11:08:57;1.88;;;0.38;;
24467;SDS011;12634;50.852;5.676;2023-03-14T11:11:31;1.45;;;0.45;;
24467;SDS011;12634;50.852;5.676;2023-03-14T11:14:01;1.75;;;0.40;;
24467;SDS011;12634;50.852;5.676;2023-03-14T11:16:43;1.17;;;0.60;;
24467;SDS011;12634;50.852;5.676;2023-03-14T11:19:25;1.83;;;0.38;;
24467;SDS011;12634;50.852;5.676;2023-03-14T11:22:04;3.50;;;0.68;;
24467;SDS011;12634;50.852;5.676;2023-03-14T11:27:50;0.75;;;0.43;;
24467;SDS011;12634;50.852;5.676;2023-03-14T11:30:24;0.43;;;0.25;;
24467;SDS011;12634;50.852;5.676;2023-03-14T11:32:56;2.65;;;0.80;;
24467;SDS011;12634;50.852;5.676;2023-03-14T11:35:30;1.17;;;0.50;;
24467;SDS011;12634;50.852;5.676;2023-03-14T11:38:03;1.95;;;0.65;;
24467;SDS011;12634;50.852;5.676;2023-03-14T11:40:37;2.08;;;0.40;;
24467;SDS011;12634;50.852;5.676;2023-03-14T11:43:09;0.88;;;0.40;;
24467;SDS011;12634;50.852;5.676;2023-03-14T11:45:39;0.52;;;0.40;;
24467;SDS011;12634;50.852;5.676;2023-03-14T11:48:17;0.90;;;0.43;;
24467;SDS011;12634;50.852;5.676;2023-03-14T11:50:52;0.70;;;0.50;;
24467;SDS011;12634;50.852;5.676;2023-03-14T11:53:25;0.73;;;0.50;;
24467;SDS011;12634;50.852;5.676;2023-03-14T11:56:06;1.63;;;0.55;;
24467;SDS011;12634;50.852;5.676;2023-03-14T11:58:45;1.20;;;0.80;;
24467;SDS011;12634;50.852;5.676;2023-03-14T12:01:18;1.73;;;1.02;;
24467;SDS011;12634;50.852;5.676;2023-03-14T12:03:52;1.98;;;0.93;;
24467;SDS011;12634;50.852;5.676;2023-03-14T12:06:24;3.25;;;0.90;;
24467;SDS011;12634;50.852;5.676;2023-03-14T12:08:55;3.05;;;0.60;;
24467;SDS011;12634;50.852;5.676;2023-03-14T12:11:29;1.02;;;0.60;;
24467;SDS011;12634;50.852;5.676;2023-03-14T12:14:03;0.82;;;0.50;;
24467;SDS011;12634;50.852;5.676;2023-03-14T12:16:49;0.95;;;0.40;;
24467;SDS011;12634;50.852;5.676;2023-03-14T12:22:19;2.28;;;0.60;;
24467;SDS011;12634;50.852;5.676;2023-03-14T12:24:54;1.92;;;0.88;;
24467;SDS011;12634;50.852;5.676;2023-03-14T12:30:18;3.72;;;0.80;;
24467;SDS011;12634;50.852;5.676;2023-03-14T12:36:02;2.30;;;0.45;;
24467;SDS011;12634;50.852;5.676;2023-03-14T12:38:52;0.50;;;0.40;;
24467;SDS011;12634;50.852;5.676;2023-03-14T12:41:27;2.58;;;0.60;;
24467;SDS011;12634;50.852;5.676;2023-03-14T12:50:14;0.85;;;0.60;;
24467;SDS011;12634;50.852;5.676;2023-03-14T12:52:49;3.47;;;1.00;;
24467;SDS011;12634;50.852;5.676;2023-03-14T12:55:32;1.73;;;0.90;;
24467;SDS011;12634;50.852;5.676;2023-03-14T12:58:03;1.48;;;1.08;;
24467;SDS011;12634;50.852;5.676;2023-03-14T13:00:39;1.85;;;0.90;;
24467;SDS011;12634;50.852;5.676;2023-03-14T13:03:17;3.33;;;1.15;;
24467;SDS011;12634;50.852;5.676;2023-03-14T13:05:54;1.85;;;0.80;;
24467;SDS011;12634;50.852;5.676;2023-03-14T13:08:34;3.20;;;1.02;;
24467;SDS011;12634;50.852;5.676;2023-03-14T13:11:04;2.92;;;1.20;;
24467;SDS011;12634;50.852;5.676;2023-03-14T13:13:34;2.03;;;0.93;;
24467;SDS011;12634;50.852;5.676;2023-03-14T13:16:09;5.32;;;1.10;;
24467;SDS011;12634;50.852;5.676;2023-03-14T13:18:42;4.70;;;1.05;;
24467;SDS011;12634;50.852;5.676;2023-03-14T13:21:13;9.88;;;1.98;;
24467;SDS011;12634;50.852;5.676;2023-03-14T13:23:53;6.65;;;1.30;;
24467;SDS011;12634;50.852;5.676;2023-03-14T13:26:22;4.07;;;1.60;;
24467;SDS011;12634;50.852;5.676;2023-03-14T13:28:53;10.18;;;2.00;;
24467;SDS011;12634;50.852;5.676;2023-03-14T13:31:21;9.07;;;1.30;;
24467;SDS011;12634;50.852;5.676;2023-03-14T13:33:56;7.20;;;1.60;;
24467;SDS011;12634;50.852;5.676;2023-03-14T13:36:26;7.20;;;1.40;;
24467;SDS011;12634;50.852;5.676;2023-03-14T13:38:57;8.95;;;1.55;;
24467;SDS011;12634;50.852;5.676;2023-03-14T13:41:26;8.13;;;1.80;;
24467;SDS011;12634;50.852;5.676;2023-03-14T13:43:57;8.73;;;1.67;;
24467;SDS011;12634;50.852;5.676;2023-03-14T13:46:29;14.80;;;2.28;;
24467;SDS011;12634;50.852;5.676;2023-03-14T13:49:01;6.75;;;2.10;;
24467;SDS011;12634;50.852;5.676;2023-03-14T13:51:31;7.28;;;1.70;;
24467;SDS011;12634;50.852;5.676;2023-03-14T13:53:59;11.18;;;2.42;;
24467;SDS011;12634;50.852;5.676;2023-03-14T13:56:28;10.13;;;2.25;;
24467;SDS011;12634;50.852;5.676;2023-03-14T13:58:57;9.30;;;1.83;;
24467;SDS011;12634;50.852;5.676;2023-03-14T14:01:25;11.70;;;1.80;;
24467;SDS011;12634;50.852;5.676;2023-03-14T14:03:54;10.95;;;2.05;;
24467;SDS011;12634;50.852;5.676;2023-03-14T14:06:26;10.73;;;2.03;;
24467;SDS011;12634;50.852;5.676;2023-03-14T14:08:58;10.32;;;2.00;;
24467;SDS011;12634;50.852;5.676;2023-03-14T14:14:18;7.18;;;1.77;;
24467;SDS011;12634;50.852;5.676;2023-03-14T14:16:51;7.20;;;1.50;;
24467;SDS011;12634;50.852;5.676;2023-03-14T14:19:20;7.35;;;1.88;;
24467;SDS011;12634;50.852;5.676;2023-03-14T14:21:50;6.40;;;1.65;;
24467;SDS011;12634;50.852;5.676;2023-03-14T14:24:19;5.10;;;1.50;;
24467;SDS011;12634;50.852;5.676;2023-03-14T14:26:50;6.25;;;1.50;;
24467;SDS011;12634;50.852;5.676;2023-03-14T14:29:23;6.78;;;1.23;;
24467;SDS011;12634;50.852;5.676;2023-03-14T14:32:03;9.32;;;2.03;;
24467;SDS011;12634;50.852;5.676;2023-03-14T14:34:39;6.80;;;1.75;;
24467;SDS011;12634;50.852;5.676;2023-03-14T14:37:17;8.00;;;2.20;;
24467;SDS011;12634;50.852;5.676;2023-03-14T14:39:50;9.00;;;1.95;;
24467;SDS011;12634;50.852;5.676;2023-03-14T14:42:19;8.18;;;2.60;;
24467;SDS011;12634;50.852;5.676;2023-03-14T14:44:48;8.35;;;2.35;;
24467;SDS011;12634;50.852;5.676;2023-03-14T14:47:18;7.03;;;2.63;;
24467;SDS011;12634;50.852;5.676;2023-03-14T14:49:49;6.40;;;1.83;;
24467;SDS011;12634;50.852;5.676;2023-03-14T14:52:18;7.10;;;2.15;;
24467;SDS011;12634;50.852;5.676;2023-03-14T14:54:47;6.15;;;1.70;;
24467;SDS011;12634;50.852;5.676;2023-03-14T14:57:20;9.93;;;1.90;;
24467;SDS011;12634;50.852;5.676;2023-03-14T14:59:49;4.70;;;1.42;;
24467;SDS011;12634;50.852;5.676;2023-03-14T15:02:29;10.70;;;2.25;;
24467;SDS011;12634;50.852;5.676;2023-03-14T15:05:03;9.13;;;1.85;;
24467;SDS011;12634;50.852;5.676;2023-03-14T15:07:31;12.13;;;2.45;;
24467;SDS011;12634;50.852;5.676;2023-03-14T15:09:59;11.25;;;1.90;;
24467;SDS011;12634;50.852;5.676;2023-03-14T15:12:27;3.03;;;1.13;;
24467;SDS011;12634;50.852;5.676;2023-03-14T15:14:54;6.63;;;2.13;;
24467;SDS011;12634;50.852;5.676;2023-03-14T15:17:22;6.55;;;1.27;;
24467;SDS011;12634;50.852;5.676;2023-03-14T15:19:49;8.93;;;1.58;;
24467;SDS011;12634;50.852;5.676;2023-03-14T15:22:16;7.57;;;1.63;;